sensor_id;sensor_type;location;lat;lon;timestamp;temperature;humidity
9393;DHT22;4736;52.508;13.422;2023-07-08T00:01:55;18.40;55.80
9393;DHT22;4736;52.508;13.422;2023-07-08T00:05:00;18.40;56.10
9393;DHT22;4736;52.508;13.422;2023-07-08T00:08:03;18.30;56.10
9393;DHT22;4736;52.508;13.422;2023-07-08T00:11:09;18.30;56.50
9393;DHT22;4736;52.508;13.422;2023-07-08T00:14:13;18.20;56.50
9393;DHT22;4736;52.508;13.422;2023-07-08T00:17:16;18.20;56.50
9393;DHT22;4736;52.508;13.422;2023-07-08T00:20:35;18.20;56.50
9393;DHT22;4736;52.508;13.422;2023-07-08T00:23:40;18.10;56.90
9393;DHT22;4736;52.508;13.422;2023-07-08T00:26:43;18.10;57.10
9393;DHT22;4736;52.508;13.422;2023-07-08T00:29:46;18.00;57.00
9393;DHT22;4736;52.508;13.422;2023-07-08T00:32:50;18.00;57.20
9393;DHT22;4736;52.508;13.422;2023-07-08T00:35:57;18.00;57.50
9393;DHT22;4736;52.508;13.422;2023-07-08T00:39:00;18.00;57.50
9393;DHT22;4736;52.508;13.422;2023-07-08T00:42:13;17.90;57.50
9393;DHT22;4736;52.508;13.422;2023-07-08T00:45:32;17.90;57.70
9393;DHT22;4736;52.508;13.422;2023-07-08T00:48:46;17.80;58.10
9393;DHT22;4736;52.508;13.422;2023-07-08T00:51:51;17.80;58.00
9393;DHT22;4736;52.508;13.422;2023-07-08T00:54:59;17.80;58.00
9393;DHT22;4736;52.508;13.422;2023-07-08T00:58:04;17.80;57.80
9393;DHT22;4736;52.508;13.422;2023-07-08T01:01:07;17.80;57.40
9393;DHT22;4736;52.508;13.422;2023-07-08T01:04:14;17.80;57.20
9393;DHT22;4736;52.508;13.422;2023-07-08T01:07:20;17.80;56.90
9393;DHT22;4736;52.508;13.422;2023-07-08T01:10:27;17.80;57.10
9393;DHT22;4736;52.508;13.422;2023-07-08T01:13:35;17.80;57.40
9393;DHT22;4736;52.508;13.422;2023-07-08T01:16:40;17.90;57.20
9393;DHT22;4736;52.508;13.422;2023-07-08T01:19:44;17.80;56.90
9393;DHT22;4736;52.508;13.422;2023-07-08T01:22:50;17.80;57.40
9393;DHT22;4736;52.508;13.422;2023-07-08T01:26:00;17.90;57.10
9393;DHT22;4736;52.508;13.422;2023-07-08T01:29:04;17.80;56.70
9393;DHT22;4736;52.508;13.422;2023-07-08T01:32:11;17.80;56.60
9393;DHT22;4736;52.508;13.422;2023-07-08T01:35:21;17.80;56.50
9393;DHT22;4736;52.508;13.422;2023-07-08T01:38:27;17.90;56.40
9393;DHT22;4736;52.508;13.422;2023-07-08T01:41:31;17.80;56.30
9393;DHT22;4736;52.508;13.422;2023-07-08T01:44:35;17.80;56.40
9393;DHT22;4736;52.508;13.422;2023-07-08T01:47:40;17.90;56.40
9393;DHT22;4736;52.508;13.422;2023-07-08T01:50:47;17.80;56.30
9393;DHT22;4736;52.508;13.422;2023-07-08T01:53:53;17.80;56.50
9393;DHT22;4736;52.508;13.422;2023-07-08T01:56:57;17.80;56.80
9393;DHT22;4736;52.508;13.422;2023-07-08T02:00:00;17.80;56.90
9393;DHT22;4736;52.508;13.422;2023-07-08T02:03:03;17.70;56.90
9393;DHT22;4736;52.508;13.422;2023-07-08T02:06:09;17.70;56.70
9393;DHT22;4736;52.508;13.422;2023-07-08T02:09:13;17.60;57.20
9393;DHT22;4736;52.508;13.422;2023-07-08T02:12:17;17.60;57.40
9393;DHT22;4736;52.508;13.422;2023-07-08T02:15:20;17.60;57.80
9393;DHT22;4736;52.508;13.422;2023-07-08T02:18:23;17.50;58.40
9393;DHT22;4736;52.508;13.422;2023-07-08T02:21:27;17.50;58.70
9393;DHT22;4736;52.508;13.422;2023-07-08T02:24:34;17.50;58.90
9393;DHT22;4736;52.508;13.422;2023-07-08T02:27:37;17.40;59.10
9393;DHT22;4736;52.508;13.422;2023-07-08T02:30:41;17.30;59.30
9393;DHT22;4736;52.508;13.422;2023-07-08T02:33:44;17.20;59.30
9393;DHT22;4736;52.508;13.422;2023-07-08T02:36:47;17.20;58.90
9393;DHT22;4736;52.508;13.422;2023-07-08T02:39:54;17.20;58.90
9393;DHT22;4736;52.508;13.422;2023-07-08T02:42:57;17.20;59.20
9393;DHT22;4736;52.508;13.422;2023-07-08T02:46:00;17.10;59.50
9393;DHT22;4736;52.508;13.422;2023-07-08T02:49:04;17.00;59.80
9393;DHT22;4736;52.508;13.422;2023-07-08T02:52:07;17.00;59.60
9393;DHT22;4736;52.508;13.422;2023-07-08T02:55:12;17.00;60.10
9393;DHT22;4736;52.508;13.422;2023-07-08T02:58:15;16.90;59.90
9393;DHT22;4736;52.508;13.422;2023-07-08T03:01:18;16.90;60.30
9393;DHT22;4736;52.508;13.422;2023-07-08T03:04:21;16.90;60.20
9393;DHT22;4736;52.508;13.422;2023-07-08T03:07:27;16.80;60.00
9393;DHT22;4736;52.508;13.422;2023-07-08T03:10:31;16.80;60.00
9393;DHT22;4736;52.508;13.422;2023-07-08T03:13:36;16.80;60.20
9393;DHT22;4736;52.508;13.422;2023-07-08T03:16:39;16.80;60.30
9393;DHT22;4736;52.508;13.422;2023-07-08T03:19:42;16.70;60.50
9393;DHT22;4736;52.508;13.422;2023-07-08T03:22:45;16.70;60.20
9393;DHT22;4736;52.508;13.422;2023-07-08T03:25:50;16.80;60.20
9393;DHT22;4736;52.508;13.422;2023-07-08T03:28:55;16.80;60.30
9393;DHT22;4736;52.508;13.422;2023-07-08T03:31:58;16.80;60.30
9393;DHT22;4736;52.508;13.422;2023-07-08T03:35:01;16.80;60.20
9393;DHT22;4736;52.508;13.422;2023-07-08T03:38:04;16.80;59.90
9393;DHT22;4736;52.508;13.422;2023-07-08T03:41:09;16.90;59.60
9393;DHT22;4736;52.508;13.422;2023-07-08T03:44:12;16.90;59.40
9393;DHT22;4736;52.508;13.422;2023-07-08T03:47:17;17.00;59.10
9393;DHT22;4736;52.508;13.422;2023-07-08T03:50:22;17.00;59.00
9393;DHT22;4736;52.508;13.422;2023-07-08T03:53:26;17.00;59.10
9393;DHT22;4736;52.508;13.422;2023-07-08T03:56:30;17.00;59.20
9393;DHT22;4736;52.508;13.422;2023-07-08T03:59:33;17.00;59.40
9393;DHT22;4736;52.508;13.422;2023-07-08T04:02:36;17.10;59.80
9393;DHT22;4736;52.508;13.422;2023-07-08T04:05:40;17.10;60.30
9393;DHT22;4736;52.508;13.422;2023-07-08T04:08:43;17.10;60.50
9393;DHT22;4736;52.508;13.422;2023-07-08T04:11:47;17.10;60.50
9393;DHT22;4736;52.508;13.422;2023-07-08T04:14:50;17.20;60.40
9393;DHT22;4736;52.508;13.422;2023-07-08T04:17:54;17.20;60.30
9393;DHT22;4736;52.508;13.422;2023-07-08T04:20:58;17.20;60.20
9393;DHT22;4736;52.508;13.422;2023-07-08T04:24:04;17.20;60.80
9393;DHT22;4736;52.508;13.422;2023-07-08T04:27:12;17.20;60.70
9393;DHT22;4736;52.508;13.422;2023-07-08T04:30:21;17.30;60.40
9393;DHT22;4736;52.508;13.422;2023-07-08T04:33:25;17.40;60.50
9393;DHT22;4736;52.508;13.422;2023-07-08T04:36:28;17.40;60.60
9393;DHT22;4736;52.508;13.422;2023-07-08T04:39:31;17.50;60.50
9393;DHT22;4736;52.508;13.422;2023-07-08T04:42:36;17.50;60.40
9393;DHT22;4736;52.508;13.422;2023-07-08T04:45:40;17.60;60.10
9393;DHT22;4736;52.508;13.422;2023-07-08T04:48:44;17.70;59.90
9393;DHT22;4736;52.508;13.422;2023-07-08T04:51:47;17.80;60.00
9393;DHT22;4736;52.508;13.422;2023-07-08T04:54:50;17.90;60.00
9393;DHT22;4736;52.508;13.422;2023-07-08T04:57:55;18.00;59.80
9393;DHT22;4736;52.508;13.422;2023-07-08T05:00:58;18.20;59.70
9393;DHT22;4736;52.508;13.422;2023-07-08T05:04:02;18.40;59.90
9393;DHT22;4736;52.508;13.422;2023-07-08T05:07:07;18.70;60.60
9393;DHT22;4736;52.508;13.422;2023-07-08T05:10:10;19.10;60.00
9393;DHT22;4736;52.508;13.422;2023-07-08T05:13:14;19.40;59.80
9393;DHT22;4736;52.508;13.422;2023-07-08T05:16:18;19.80;59.50
9393;DHT22;4736;52.508;13.422;2023-07-08T05:19:21;20.10;59.40
9393;DHT22;4736;52.508;13.422;2023-07-08T05:22:24;20.50;58.90
9393;DHT22;4736;52.508;13.422;2023-07-08T05:25:31;20.90;58.50
9393;DHT22;4736;52.508;13.422;2023-07-08T05:28:36;21.30;59.00
9393;DHT22;4736;52.508;13.422;2023-07-08T05:31:39;21.70;58.30
9393;DHT22;4736;52.508;13.422;2023-07-08T05:34:49;21.90;57.50
9393;DHT22;4736;52.508;13.422;2023-07-08T05:37:52;22.30;58.10
9393;DHT22;4736;52.508;13.422;2023-07-08T05:40:58;22.60;56.70
9393;DHT22;4736;52.508;13.422;2023-07-08T05:44:03;22.90;57.10
9393;DHT22;4736;52.508;13.422;2023-07-08T05:47:06;23.20;56.50
9393;DHT22;4736;52.508;13.422;2023-07-08T05:50:10;23.40;54.50
9393;DHT22;4736;52.508;13.422;2023-07-08T05:53:14;23.70;54.00
9393;DHT22;4736;52.508;13.422;2023-07-08T05:56:17;24.00;53.80
9393;DHT22;4736;52.508;13.422;2023-07-08T05:59:21;24.20;52.00
9393;DHT22;4736;52.508;13.422;2023-07-08T06:02:24;24.40;49.60
9393;DHT22;4736;52.508;13.422;2023-07-08T06:05:28;24.70;50.90
9393;DHT22;4736;52.508;13.422;2023-07-08T06:08:32;25.00;49.30
9393;DHT22;4736;52.508;13.422;2023-07-08T06:11:35;25.30;49.60
9393;DHT22;4736;52.508;13.422;2023-07-08T06:14:39;25.60;48.30
9393;DHT22;4736;52.508;13.422;2023-07-08T06:17:42;25.90;46.30
9393;DHT22;4736;52.508;13.422;2023-07-08T06:20:51;26.20;47.60
9393;DHT22;4736;52.508;13.422;2023-07-08T06:23:54;26.40;46.10
9393;DHT22;4736;52.508;13.422;2023-07-08T06:26:58;26.70;47.10
9393;DHT22;4736;52.508;13.422;2023-07-08T06:30:03;26.90;46.60
9393;DHT22;4736;52.508;13.422;2023-07-08T06:33:06;27.10;46.10
9393;DHT22;4736;52.508;13.422;2023-07-08T06:36:09;27.30;45.90
9393;DHT22;4736;52.508;13.422;2023-07-08T06:39:12;27.50;45.80
9393;DHT22;4736;52.508;13.422;2023-07-08T06:42:16;27.80;46.60
9393;DHT22;4736;52.508;13.422;2023-07-08T06:45:20;28.00;46.20
9393;DHT22;4736;52.508;13.422;2023-07-08T06:48:23;28.10;45.50
9393;DHT22;4736;52.508;13.422;2023-07-08T06:51:27;28.30;45.40
9393;DHT22;4736;52.508;13.422;2023-07-08T06:54:30;28.50;44.00
9393;DHT22;4736;52.508;13.422;2023-07-08T06:57:34;28.70;44.00
9393;DHT22;4736;52.508;13.422;2023-07-08T07:00:41;28.90;44.00
9393;DHT22;4736;52.508;13.422;2023-07-08T07:03:44;29.00;42.70
9393;DHT22;4736;52.508;13.422;2023-07-08T07:06:48;28.90;42.80
9393;DHT22;4736;52.508;13.422;2023-07-08T07:09:51;28.80;45.10
9393;DHT22;4736;52.508;13.422;2023-07-08T07:12:54;28.90;44.50
9393;DHT22;4736;52.508;13.422;2023-07-08T07:15:59;28.90;43.30
9393;DHT22;4736;52.508;13.422;2023-07-08T07:19:04;28.90;43.60
9393;DHT22;4736;52.508;13.422;2023-07-08T07:22:07;28.70;42.90
9393;DHT22;4736;52.508;13.422;2023-07-08T07:25:10;28.70;43.10
9393;DHT22;4736;52.508;13.422;2023-07-08T07:28:13;28.80;43.10
9393;DHT22;4736;52.508;13.422;2023-07-08T07:31:19;28.80;44.00
9393;DHT22;4736;52.508;13.422;2023-07-08T07:34:23;28.80;43.30
9393;DHT22;4736;52.508;13.422;2023-07-08T07:37:26;28.90;43.30
9393;DHT22;4736;52.508;13.422;2023-07-08T07:40:29;28.80;42.80
9393;DHT22;4736;52.508;13.422;2023-07-08T07:43:32;28.60;43.10
9393;DHT22;4736;52.508;13.422;2023-07-08T07:46:37;28.50;43.30
9393;DHT22;4736;52.508;13.422;2023-07-08T07:49:40;28.50;43.10
9393;DHT22;4736;52.508;13.422;2023-07-08T07:52:44;28.30;45.20
9393;DHT22;4736;52.508;13.422;2023-07-08T07:55:55;28.10;43.70
9393;DHT22;4736;52.508;13.422;2023-07-08T07:58:59;28.10;44.00
9393;DHT22;4736;52.508;13.422;2023-07-08T08:02:04;27.90;43.70
9393;DHT22;4736;52.508;13.422;2023-07-08T08:05:08;27.80;44.10
9393;DHT22;4736;52.508;13.422;2023-07-08T08:08:11;27.70;44.90
9393;DHT22;4736;52.508;13.422;2023-07-08T08:11:15;27.60;45.90
9393;DHT22;4736;52.508;13.422;2023-07-08T08:14:18;27.60;44.90
9393;DHT22;4736;52.508;13.422;2023-07-08T08:17:23;27.50;44.20
9393;DHT22;4736;52.508;13.422;2023-07-08T08:20:27;27.50;44.60
9393;DHT22;4736;52.508;13.422;2023-07-08T08:23:30;27.50;44.90
9393;DHT22;4736;52.508;13.422;2023-07-08T08:26:33;27.40;44.70
9393;DHT22;4736;52.508;13.422;2023-07-08T08:29:37;27.40;44.90
9393;DHT22;4736;52.508;13.422;2023-07-08T08:32:42;27.40;45.00
9393;DHT22;4736;52.508;13.422;2023-07-08T08:35:45;27.40;45.50
9393;DHT22;4736;52.508;13.422;2023-07-08T08:38:49;27.40;45.20
9393;DHT22;4736;52.508;13.422;2023-07-08T08:41:52;27.30;44.50
9393;DHT22;4736;52.508;13.422;2023-07-08T08:44:57;27.30;44.40
9393;DHT22;4736;52.508;13.422;2023-07-08T08:48:08;27.50;45.10
9393;DHT22;4736;52.508;13.422;2023-07-08T08:51:14;27.70;45.30
9393;DHT22;4736;52.508;13.422;2023-07-08T08:54:19;28.00;45.70
9393;DHT22;4736;52.508;13.422;2023-07-08T08:57:32;28.30;44.50
9393;DHT22;4736;52.508;13.422;2023-07-08T09:00:46;28.50;44.40
9393;DHT22;4736;52.508;13.422;2023-07-08T09:03:55;28.70;43.10
9393;DHT22;4736;52.508;13.422;2023-07-08T09:07:06;28.90;42.40
9393;DHT22;4736;52.508;13.422;2023-07-08T09:10:17;29.20;42.90
9393;DHT22;4736;52.508;13.422;2023-07-08T09:13:27;29.30;41.50
9393;DHT22;4736;52.508;13.422;2023-07-08T09:16:40;29.30;40.40
9393;DHT22;4736;52.508;13.422;2023-07-08T09:19:52;29.20;41.50
9393;DHT22;4736;52.508;13.422;2023-07-08T09:23:03;29.30;42.00
9393;DHT22;4736;52.508;13.422;2023-07-08T09:26:14;29.50;41.30
9393;DHT22;4736;52.508;13.422;2023-07-08T09:29:18;29.50;40.40
9393;DHT22;4736;52.508;13.422;2023-07-08T09:32:23;29.60;40.30
9393;DHT22;4736;52.508;13.422;2023-07-08T09:35:38;29.70;41.20
9393;DHT22;4736;52.508;13.422;2023-07-08T09:38:41;29.70;39.80
9393;DHT22;4736;52.508;13.422;2023-07-08T09:41:47;29.70;38.30
9393;DHT22;4736;52.508;13.422;2023-07-08T09:44:55;29.70;37.50
9393;DHT22;4736;52.508;13.422;2023-07-08T09:48:01;29.50;37.20
9393;DHT22;4736;52.508;13.422;2023-07-08T09:51:07;29.50;38.50
9393;DHT22;4736;52.508;13.422;2023-07-08T09:54:10;29.40;38.40
9393;DHT22;4736;52.508;13.422;2023-07-08T09:57:25;29.40;37.80
9393;DHT22;4736;52.508;13.422;2023-07-08T10:00:33;29.20;38.00
9393;DHT22;4736;52.508;13.422;2023-07-08T10:03:37;29.10;38.30
9393;DHT22;4736;52.508;13.422;2023-07-08T10:06:45;29.20;38.30
9393;DHT22;4736;52.508;13.422;2023-07-08T10:09:52;29.20;38.50
9393;DHT22;4736;52.508;13.422;2023-07-08T10:13:00;29.30;38.00
9393;DHT22;4736;52.508;13.422;2023-07-08T10:16:18;29.40;37.90
9393;DHT22;4736;52.508;13.422;2023-07-08T10:19:25;29.40;37.20
9393;DHT22;4736;52.508;13.422;2023-07-08T10:22:38;29.30;37.90
9393;DHT22;4736;52.508;13.422;2023-07-08T10:25:49;29.40;38.20
9393;DHT22;4736;52.508;13.422;2023-07-08T10:29:16;29.40;37.60
9393;DHT22;4736;52.508;13.422;2023-07-08T10:32:28;29.20;37.90
9393;DHT22;4736;52.508;13.422;2023-07-08T10:35:36;29.30;38.20
9393;DHT22;4736;52.508;13.422;2023-07-08T10:38:49;29.40;37.80
9393;DHT22;4736;52.508;13.422;2023-07-08T10:41:57;29.50;38.00
9393;DHT22;4736;52.508;13.422;2023-07-08T10:45:09;29.70;36.90
9393;DHT22;4736;52.508;13.422;2023-07-08T10:48:28;29.70;37.10
9393;DHT22;4736;52.508;13.422;2023-07-08T10:51:41;29.80;36.70
9393;DHT22;4736;52.508;13.422;2023-07-08T10:55:02;29.80;37.20
9393;DHT22;4736;52.508;13.422;2023-07-08T10:58:34;29.70;37.30
9393;DHT22;4736;52.508;13.422;2023-07-08T11:01:50;29.70;37.10
9393;DHT22;4736;52.508;13.422;2023-07-08T11:05:05;29.70;36.90
9393;DHT22;4736;52.508;13.422;2023-07-08T11:08:22;29.70;37.70
9393;DHT22;4736;52.508;13.422;2023-07-08T11:11:32;30.00;37.20
9393;DHT22;4736;52.508;13.422;2023-07-08T11:14:42;30.00;37.40
9393;DHT22;4736;52.508;13.422;2023-07-08T11:17:52;30.00;36.90
9393;DHT22;4736;52.508;13.422;2023-07-08T11:21:02;29.90;37.30
9393;DHT22;4736;52.508;13.422;2023-07-08T11:24:14;29.90;38.00
9393;DHT22;4736;52.508;13.422;2023-07-08T11:27:23;29.80;37.00
9393;DHT22;4736;52.508;13.422;2023-07-08T11:30:30;29.90;36.70
9393;DHT22;4736;52.508;13.422;2023-07-08T11:33:37;30.10;38.40
9393;DHT22;4736;52.508;13.422;2023-07-08T11:36:45;30.30;38.00
9393;DHT22;4736;52.508;13.422;2023-07-08T11:39:54;30.50;37.20
9393;DHT22;4736;52.508;13.422;2023-07-08T11:43:03;30.60;37.80
9393;DHT22;4736;52.508;13.422;2023-07-08T11:46:13;30.70;37.00
9393;DHT22;4736;52.508;13.422;2023-07-08T11:49:20;30.70;37.10
9393;DHT22;4736;52.508;13.422;2023-07-08T11:52:23;30.90;37.50
9393;DHT22;4736;52.508;13.422;2023-07-08T11:55:35;30.80;36.10
9393;DHT22;4736;52.508;13.422;2023-07-08T11:58:57;30.80;36.30
9393;DHT22;4736;52.508;13.422;2023-07-08T12:02:03;30.70;37.10
9393;DHT22;4736;52.508;13.422;2023-07-08T12:05:13;30.50;36.30
9393;DHT22;4736;52.508;13.422;2023-07-08T12:08:18;30.40;37.40
9393;DHT22;4736;52.508;13.422;2023-07-08T12:11:26;30.50;37.10
9393;DHT22;4736;52.508;13.422;2023-07-08T12:14:32;30.60;36.40
9393;DHT22;4736;52.508;13.422;2023-07-08T12:17:37;30.70;37.10
9393;DHT22;4736;52.508;13.422;2023-07-08T12:20:42;30.80;36.70
9393;DHT22;4736;52.508;13.422;2023-07-08T12:23:47;30.90;36.50
9393;DHT22;4736;52.508;13.422;2023-07-08T12:26:50;30.90;36.00
9393;DHT22;4736;52.508;13.422;2023-07-08T12:29:55;30.90;36.50
9393;DHT22;4736;52.508;13.422;2023-07-08T12:32:59;30.90;37.00
9393;DHT22;4736;52.508;13.422;2023-07-08T12:36:09;30.90;36.40
9393;DHT22;4736;52.508;13.422;2023-07-08T12:39:14;30.90;36.30
9393;DHT22;4736;52.508;13.422;2023-07-08T12:42:18;31.00;36.30
9393;DHT22;4736;52.508;13.422;2023-07-08T12:45:24;31.00;36.30
9393;DHT22;4736;52.508;13.422;2023-07-08T12:48:34;31.10;37.20
9393;DHT22;4736;52.508;13.422;2023-07-08T12:51:42;31.10;36.10
9393;DHT22;4736;52.508;13.422;2023-07-08T12:54:45;31.10;36.70
9393;DHT22;4736;52.508;13.422;2023-07-08T12:57:51;31.10;35.60
9393;DHT22;4736;52.508;13.422;2023-07-08T13:00:58;31.10;36.40
9393;DHT22;4736;52.508;13.422;2023-07-08T13:04:05;31.10;36.60
9393;DHT22;4736;52.508;13.422;2023-07-08T13:07:22;31.10;36.70
9393;DHT22;4736;52.508;13.422;2023-07-08T13:10:28;31.20;36.30
9393;DHT22;4736;52.508;13.422;2023-07-08T13:13:36;31.20;36.70
9393;DHT22;4736;52.508;13.422;2023-07-08T13:16:42;31.20;36.10
9393;DHT22;4736;52.508;13.422;2023-07-08T13:19:46;31.10;36.10
9393;DHT22;4736;52.508;13.422;2023-07-08T13:22:54;31.20;36.20
9393;DHT22;4736;52.508;13.422;2023-07-08T13:25:57;31.30;36.50
9393;DHT22;4736;52.508;13.422;2023-07-08T13:29:16;31.20;35.70
9393;DHT22;4736;52.508;13.422;2023-07-08T13:32:29;31.20;35.90
9393;DHT22;4736;52.508;13.422;2023-07-08T13:35:36;31.20;36.00
9393;DHT22;4736;52.508;13.422;2023-07-08T13:38:40;31.10;36.20
9393;DHT22;4736;52.508;13.422;2023-07-08T13:41:45;31.00;35.40
9393;DHT22;4736;52.508;13.422;2023-07-08T13:44:49;31.00;36.00
9393;DHT22;4736;52.508;13.422;2023-07-08T13:48:08;31.10;36.20
9393;DHT22;4736;52.508;13.422;2023-07-08T13:51:16;31.20;36.00
9393;DHT22;4736;52.508;13.422;2023-07-08T13:54:22;31.20;36.20
9393;DHT22;4736;52.508;13.422;2023-07-08T13:57:32;31.30;35.70
9393;DHT22;4736;52.508;13.422;2023-07-08T14:00:36;31.30;35.90
9393;DHT22;4736;52.508;13.422;2023-07-08T14:03:40;31.30;35.70
9393;DHT22;4736;52.508;13.422;2023-07-08T14:06:44;31.40;35.70
9393;DHT22;4736;52.508;13.422;2023-07-08T14:09:49;31.50;35.70
9393;DHT22;4736;52.508;13.422;2023-07-08T14:12:52;31.50;35.20
9393;DHT22;4736;52.508;13.422;2023-07-08T14:15:55;31.40;35.00
9393;DHT22;4736;52.508;13.422;2023-07-08T14:19:09;31.50;35.50
9393;DHT22;4736;52.508;13.422;2023-07-08T14:22:25;31.60;34.60
9393;DHT22;4736;52.508;13.422;2023-07-08T14:25:29;31.70;34.70
9393;DHT22;4736;52.508;13.422;2023-07-08T14:28:32;31.70;34.90
9393;DHT22;4736;52.508;13.422;2023-07-08T14:31:36;31.60;34.40
9393;DHT22;4736;52.508;13.422;2023-07-08T14:34:42;31.60;35.10
9393;DHT22;4736;52.508;13.422;2023-07-08T14:37:50;31.60;34.40
9393;DHT22;4736;52.508;13.422;2023-07-08T14:40:55;31.40;34.90
9393;DHT22;4736;52.508;13.422;2023-07-08T14:43:59;31.40;35.10
9393;DHT22;4736;52.508;13.422;2023-07-08T14:47:04;31.50;35.10
9393;DHT22;4736;52.508;13.422;2023-07-08T14:50:14;31.50;35.30
9393;DHT22;4736;52.508;13.422;2023-07-08T14:53:18;31.10;34.90
9393;DHT22;4736;52.508;13.422;2023-07-08T14:56:21;31.10;34.50
9393;DHT22;4736;52.508;13.422;2023-07-08T14:59:27;31.10;34.70
9393;DHT22;4736;52.508;13.422;2023-07-08T15:02:30;31.10;34.80
9393;DHT22;4736;52.508;13.422;2023-07-08T15:05:36;31.20;35.30
9393;DHT22;4736;52.508;13.422;2023-07-08T15:08:39;31.40;34.70
9393;DHT22;4736;52.508;13.422;2023-07-08T15:11:42;31.40;34.60
9393;DHT22;4736;52.508;13.422;2023-07-08T15:14:49;31.30;35.00
9393;DHT22;4736;52.508;13.422;2023-07-08T15:17:52;31.40;34.70
9393;DHT22;4736;52.508;13.422;2023-07-08T15:20:58;31.40;35.10
9393;DHT22;4736;52.508;13.422;2023-07-08T15:24:02;31.30;35.50
9393;DHT22;4736;52.508;13.422;2023-07-08T15:27:08;31.30;35.10
9393;DHT22;4736;52.508;13.422;2023-07-08T15:30:16;31.20;35.50
9393;DHT22;4736;52.508;13.422;2023-07-08T15:33:19;31.20;35.30
9393;DHT22;4736;52.508;13.422;2023-07-08T15:36:24;31.30;35.10
9393;DHT22;4736;52.508;13.422;2023-07-08T15:39:27;31.20;34.80
9393;DHT22;4736;52.508;13.422;2023-07-08T15:42:30;31.30;35.30
9393;DHT22;4736;52.508;13.422;2023-07-08T15:45:35;31.00;34.60
9393;DHT22;4736;52.508;13.422;2023-07-08T15:48:39;31.00;35.40
9393;DHT22;4736;52.508;13.422;2023-07-08T15:51:44;31.10;34.80
9393;DHT22;4736;52.508;13.422;2023-07-08T15:54:50;31.10;35.70
9393;DHT22;4736;52.508;13.422;2023-07-08T15:57:56;31.10;35.90
9393;DHT22;4736;52.508;13.422;2023-07-08T16:01:02;31.20;35.40
9393;DHT22;4736;52.508;13.422;2023-07-08T16:04:16;31.10;35.00
9393;DHT22;4736;52.508;13.422;2023-07-08T16:07:22;31.00;35.10
9393;DHT22;4736;52.508;13.422;2023-07-08T16:10:25;31.00;35.00
9393;DHT22;4736;52.508;13.422;2023-07-08T16:13:30;30.90;35.40
9393;DHT22;4736;52.508;13.422;2023-07-08T16:16:34;31.00;35.90
9393;DHT22;4736;52.508;13.422;2023-07-08T16:19:37;30.90;36.20
9393;DHT22;4736;52.508;13.422;2023-07-08T16:22:41;30.90;36.30
9393;DHT22;4736;52.508;13.422;2023-07-08T16:25:48;30.80;36.40
9393;DHT22;4736;52.508;13.422;2023-07-08T16:28:51;30.70;36.50
9393;DHT22;4736;52.508;13.422;2023-07-08T16:31:55;30.70;36.50
9393;DHT22;4736;52.508;13.422;2023-07-08T16:34:58;30.60;36.60
9393;DHT22;4736;52.508;13.422;2023-07-08T16:38:03;30.50;35.80
9393;DHT22;4736;52.508;13.422;2023-07-08T16:41:10;30.50;35.90
9393;DHT22;4736;52.508;13.422;2023-07-08T16:44:15;30.50;35.80
9393;DHT22;4736;52.508;13.422;2023-07-08T16:47:20;30.40;36.30
9393;DHT22;4736;52.508;13.422;2023-07-08T16:50:26;30.30;36.40
9393;DHT22;4736;52.508;13.422;2023-07-08T16:53:32;30.10;36.60
9393;DHT22;4736;52.508;13.422;2023-07-08T16:56:35;30.00;37.00
9393;DHT22;4736;52.508;13.422;2023-07-08T16:59:41;29.90;36.90
9393;DHT22;4736;52.508;13.422;2023-07-08T17:02:45;29.70;37.60
9393;DHT22;4736;52.508;13.422;2023-07-08T17:05:49;29.60;37.30
9393;DHT22;4736;52.508;13.422;2023-07-08T17:08:55;29.50;36.70
9393;DHT22;4736;52.508;13.422;2023-07-08T17:12:00;29.40;37.30
9393;DHT22;4736;52.508;13.422;2023-07-08T17:15:05;29.30;37.90
9393;DHT22;4736;52.508;13.422;2023-07-08T17:18:12;29.20;37.10
9393;DHT22;4736;52.508;13.422;2023-07-08T17:21:20;29.10;37.30
9393;DHT22;4736;52.508;13.422;2023-07-08T17:24:24;29.00;37.70
9393;DHT22;4736;52.508;13.422;2023-07-08T17:27:28;28.90;37.60
9393;DHT22;4736;52.508;13.422;2023-07-08T17:30:33;28.80;37.70
9393;DHT22;4736;52.508;13.422;2023-07-08T17:33:39;28.80;37.60
9393;DHT22;4736;52.508;13.422;2023-07-08T17:36:42;28.70;38.00
9393;DHT22;4736;52.508;13.422;2023-07-08T17:39:47;28.60;38.40
9393;DHT22;4736;52.508;13.422;2023-07-08T17:42:51;28.50;38.80
9393;DHT22;4736;52.508;13.422;2023-07-08T17:45:55;28.40;38.50
9393;DHT22;4736;52.508;13.422;2023-07-08T17:48:59;28.30;39.40
9393;DHT22;4736;52.508;13.422;2023-07-08T17:52:07;28.10;39.20
9393;DHT22;4736;52.508;13.422;2023-07-08T17:55:13;28.10;39.10
9393;DHT22;4736;52.508;13.422;2023-07-08T17:58:16;28.00;39.00
9393;DHT22;4736;52.508;13.422;2023-07-08T18:01:21;27.90;39.30
9393;DHT22;4736;52.508;13.422;2023-07-08T18:04:25;27.80;39.80
9393;DHT22;4736;52.508;13.422;2023-07-08T18:07:28;27.70;40.30
9393;DHT22;4736;52.508;13.422;2023-07-08T18:10:34;27.50;40.30
9393;DHT22;4736;52.508;13.422;2023-07-08T18:13:41;27.40;41.00
9393;DHT22;4736;52.508;13.422;2023-07-08T18:16:45;27.30;40.80
9393;DHT22;4736;52.508;13.422;2023-07-08T18:19:48;27.20;40.90
9393;DHT22;4736;52.508;13.422;2023-07-08T18:22:53;27.20;40.60
9393;DHT22;4736;52.508;13.422;2023-07-08T18:25:57;27.10;40.90
9393;DHT22;4736;52.508;13.422;2023-07-08T18:29:01;27.00;41.00
9393;DHT22;4736;52.508;13.422;2023-07-08T18:32:09;26.90;41.30
9393;DHT22;4736;52.508;13.422;2023-07-08T18:35:18;26.80;41.90
9393;DHT22;4736;52.508;13.422;2023-07-08T18:38:21;26.60;42.10
9393;DHT22;4736;52.508;13.422;2023-07-08T18:41:28;26.50;41.60
9393;DHT22;4736;52.508;13.422;2023-07-08T18:44:32;26.40;41.80
9393;DHT22;4736;52.508;13.422;2023-07-08T18:47:37;26.40;41.70
9393;DHT22;4736;52.508;13.422;2023-07-08T18:50:42;26.30;42.20
9393;DHT22;4736;52.508;13.422;2023-07-08T18:53:47;26.20;42.60
9393;DHT22;4736;52.508;13.422;2023-07-08T18:56:51;26.10;43.30
9393;DHT22;4736;52.508;13.422;2023-07-08T18:59:55;26.00;43.00
9393;DHT22;4736;52.508;13.422;2023-07-08T19:02:59;25.90;43.10
9393;DHT22;4736;52.508;13.422;2023-07-08T19:06:03;25.80;43.30
9393;DHT22;4736;52.508;13.422;2023-07-08T19:09:07;25.90;43.80
9393;DHT22;4736;52.508;13.422;2023-07-08T19:12:12;25.80;44.90
9393;DHT22;4736;52.508;13.422;2023-07-08T19:15:20;25.80;45.20
9393;DHT22;4736;52.508;13.422;2023-07-08T19:18:23;25.80;45.80
9393;DHT22;4736;52.508;13.422;2023-07-08T19:21:27;25.80;46.10
9393;DHT22;4736;52.508;13.422;2023-07-08T19:24:30;25.80;46.40
9393;DHT22;4736;52.508;13.422;2023-07-08T19:27:40;25.70;46.50
9393;DHT22;4736;52.508;13.422;2023-07-08T19:30:47;25.60;46.90
9393;DHT22;4736;52.508;13.422;2023-07-08T19:33:52;25.50;47.00
9393;DHT22;4736;52.508;13.422;2023-07-08T19:36:56;25.30;47.20
9393;DHT22;4736;52.508;13.422;2023-07-08T19:39:59;25.20;47.50
9393;DHT22;4736;52.508;13.422;2023-07-08T19:43:04;25.00;47.70
9393;DHT22;4736;52.508;13.422;2023-07-08T19:46:12;25.00;47.50
9393;DHT22;4736;52.508;13.422;2023-07-08T19:49:16;24.80;47.60
9393;DHT22;4736;52.508;13.422;2023-07-08T19:52:19;24.80;47.70